Time;durP1;ratioP1;P1;durP2;ratioP2;P2;SDS_P1;SDS_P2;PMS_P1;PMS_P2;Temp;Humidity;BMP_temperature;BMP_pressure;BME280_temperature;BME280_humidity;BME280_pressure;Samples;Min_cycle;Max_cycle;Signal;HPM_P1;HPM_P2
2021/10/02 00:45:27;;;;;;;23.90;19.60;;;;;;;9.52;76.20;100793.48;116875;1190;21893;-78
2021/10/02 00:47:58;;;;;;;21.90;19.60;;;;;;;9.53;76.28;100792.52;116937;1189;22634;-78
2021/10/02 00:50:27;;;;;;;20.10;18.10;;;;;;;9.54;76.26;100791.08;116990;1190;22250;-78
2021/10/02 00:52:56;;;;;;;21.60;19.40;;;;;;;9.53;76.15;100791.51;116917;1190;23443;-78
2021/10/02 00:55:26;;;;;;;21.20;19.10;;;;;;;9.52;76.20;100789.65;116980;1188;22905;-78
2021/10/02 00:57:56;;;;;;;21.10;19.10;;;;;;;9.51;76.22;100787.65;117208;1187;21897;-76
2021/10/02 01:00:26;;;;;;;21.40;19.10;;;;;;;9.49;76.13;100788.95;117179;1187;21916;-77
2021/10/02 01:03:14;;;;;;;21.70;18.40;;;;;;;9.47;76.35;100784.33;117196;1188;21881;-77
2021/10/02 01:06:01;;;;;;;21.30;18.10;;;;;;;9.47;76.46;100780.67;117193;1187;21967;-77
2021/10/02 01:09:24;;;;;;;19.30;17.50;;;;;;;9.47;76.54;100778.75;117188;1187;22872;-77
2021/10/02 01:12:38;;;;;;;20.20;18.10;;;;;;;9.44;76.48;100774.44;117199;1184;21884;-77
2021/10/02 01:15:13;;;;;;;19.70;17.70;;;;;;;9.38;76.58;100766.94;117197;1188;21886;-78
2021/10/02 01:17:52;;;;;;;21.20;19.00;;;;;;;9.37;76.72;100763.50;117201;1187;21892;-79
2021/10/02 01:21:04;;;;;;;21.50;18.10;;;;;;;9.37;76.71;100763.69;117196;1187;21887;-79
2021/10/02 01:23:58;;;;;;;22.00;19.10;;;;;;;9.33;76.73;100760.86;117196;1187;21941;-79
2021/10/02 01:27:13;;;;;;;19.50;17.50;;;;;;;9.31;76.81;100756.71;117217;1184;21871;-79
2021/10/02 01:29:44;;;;;;;20.80;18.50;;;;;;;9.28;76.83;100758.77;117149;1188;23535;-79
2021/10/02 01:32:43;;;;;;;21.10;18.90;;;;;;;9.30;77.11;100759.49;117205;1187;23500;-79
2021/10/02 01:35:24;;;;;;;21.30;18.10;;;;;;;9.32;76.97;100751.58;117178;1184;22894;-79
2021/10/02 01:48:52;;;;;;;20.80;18.70;;;;;;;9.27;77.03;100740.75;117178;1187;21922;-78
2021/10/02 01:51:24;;;;;;;21.20;18.80;;;;;;;9.26;76.98;100737.64;117106;1188;23959;-79
2021/10/02 01:53:55;;;;;;;20.50;18.40;;;;;;;9.26;77.01;100732.27;117188;1187;21891;-78
2021/10/02 01:56:26;;;;;;;18.90;16.70;;;;;;;9.22;76.81;100734.95;117081;1187;22880;-79
2021/10/02 01:58:58;;;;;;;19.70;17.70;;;;;;;9.16;76.80;100735.86;117213;1187;23433;-79
2021/10/02 02:01:28;;;;;;;;;;;;;;;9.12;77.10;100730.58;117210;1187;21878;-79
2021/10/02 02:03:59;;;;;;;23.00;18.40;;;;;;;9.04;77.30;100726.67;117146;1188;23190;-78
2021/10/02 02:06:29;;;;;;;21.90;19.40;;;;;;;9.04;77.42;100727.73;117226;1187;23010;-78
2021/10/02 02:09:00;;;;;;;20.40;18.20;;;;;;;9.06;77.35;100729.77;117201;1188;21888;-78
2021/10/02 02:11:32;;;;;;;20.10;18.00;;;;;;;9.06;77.32;100730.30;117261;1187;23532;-78
2021/10/02 02:14:03;;;;;;;19.80;17.60;;;;;;;9.05;77.27;100729.86;117197;1187;21878;-77
2021/10/02 02:16:33;;;;;;;19.30;17.40;;;;;;;9.05;77.37;100728.00;117182;1187;23573;-78
2021/10/02 02:19:03;;;;;;;21.00;18.90;;;;;;;9.05;77.47;100725.39;117204;1188;21909;-79
2021/10/02 02:21:33;;;;;;;20.90;18.90;;;;;;;9.05;77.51;100721.84;117041;1188;21890;-78
2021/10/02 02:24:03;;;;;;;19.50;17.60;;;;;;;9.04;77.41;100718.54;117163;1184;22969;-78
2021/10/02 02:26:35;;;;;;;20.40;18.30;;;;;;;9.03;77.51;100716.72;117197;1187;22110;-78
2021/10/02 02:29:05;;;;;;;20.30;18.40;;;;;;;9.04;77.56;100719.09;117064;1185;22162;-78
2021/10/02 02:31:38;;;;;;;20.90;18.70;;;;;;;9.02;77.43;100714.77;117183;1188;22844;-78
2021/10/02 02:34:07;;;;;;;21.70;19.10;;;;;;;9.00;77.41;100714.19;117075;1188;23297;-79
2021/10/02 02:36:36;;;;;;;20.60;18.40;;;;;;;8.99;77.52;100710.77;117333;1184;21870;-78
2021/10/02 02:39:06;;;;;;;21.90;19.60;;;;;;;8.95;77.52;100706.80;117200;1184;21888;-79
2021/10/02 02:41:35;;;;;;;21.30;19.30;;;;;;;8.91;77.50;100705.20;117124;1188;21872;-78
2021/10/02 02:44:05;;;;;;;20.50;18.30;;;;;;;8.91;77.74;100704.41;117155;1187;22947;-80
2021/10/02 02:46:38;;;;;;;23.80;18.80;;;;;;;8.89;77.87;100699.09;117178;1188;21880;-78
2021/10/02 02:49:36;;;;;;;21.60;18.10;;;;;;;8.88;77.99;100699.80;117176;1187;23221;-77
2021/10/02 02:52:15;;;;;;;21.80;19.50;;;;;;;8.83;77.85;100698.69;117233;1187;21871;-77
2021/10/02 02:55:03;;;;;;;21.60;19.30;;;;;;;8.80;77.93;100697.37;117103;1187;24387;-77
2021/10/02 02:57:55;;;;;;;22.40;20.20;;;;;;;8.80;78.10;100692.80;117226;1187;21893;-78
2021/10/02 03:00:24;;;;;;;;;;;;;;;8.79;78.15;100688.36;117195;1188;21865;-77
2021/10/02 03:03:05;;;;;;;23.00;19.40;;;;;;;8.71;78.28;100689.98;117212;1187;22277;-78
2021/10/02 03:05:41;;;;;;;22.80;19.80;;;;;;;8.70;78.35;100693.80;117199;1188;22641;-77
2021/10/02 03:08:15;;;;;;;21.60;19.40;;;;;;;8.72;78.36;100690.56;117182;1187;22206;-77
2021/10/02 03:10:52;;;;;;;21.50;19.30;;;;;;;8.73;78.42;100692.20;117088;1187;21899;-77
2021/10/02 03:13:24;;;;;;;23.30;20.90;;;;;;;8.72;78.27;100695.30;117232;1187;21873;-77
2021/10/02 03:15:54;;;;;;;25.50;19.60;;;;;;;8.70;78.30;100694.79;117195;1187;22888;-76
2021/10/02 03:18:27;;;;;;;23.10;20.70;;;;;;;8.69;78.33;100697.32;117153;1187;21894;-77
2021/10/02 03:20:57;;;;;;;;;;;;;;;8.69;78.33;100698.73;117238;1187;22213;-76
2021/10/02 03:23:28;;;;;;;24.10;20.40;;;;;;;8.62;78.56;100695.77;117217;1187;22937;-79
2021/10/02 03:25:58;;;;;;;26.00;21.10;;;;;;;8.61;78.61;100692.31;117220;1187;21924;-77
2021/10/02 03:28:32;;;;;;;25.00;22.30;;;;;;;8.65;78.65;100692.44;117029;1183;21898;-77
2021/10/02 03:31:01;;;;;;;25.70;23.00;;;;;;;8.69;78.59;100692.08;116839;1192;22806;-77
2021/10/02 03:33:31;;;;;;;24.60;22.10;;;;;;;8.72;78.58;100689.55;116720;1192;22914;-77
2021/10/02 03:36:01;;;;;;;24.00;21.50;;;;;;;8.74;78.61;100688.05;116609;1190;22085;-76
2021/10/02 03:38:31;;;;;;;23.20;20.70;;;;;;;8.79;78.69;100685.34;116618;1192;22913;-77
2021/10/02 03:41:01;;;;;;;23.90;21.40;;;;;;;8.80;78.45;100682.92;116723;1192;21894;-77
2021/10/02 03:43:34;;;;;;;25.40;22.10;;;;;;;8.81;78.45;100685.52;116706;1192;21932;-77
2021/10/02 03:46:03;;;;;;;;;;;;;;;8.82;78.43;100685.17;116739;1191;21900;-77
2021/10/02 03:48:33;;;;;;;23.90;21.40;;;;;;;8.75;78.48;100681.82;116838;1190;22753;-77
2021/10/02 03:51:03;;;;;;;24.20;21.70;;;;;;;8.75;78.57;100680.13;116845;1190;23476;-78
2021/10/02 03:53:32;;;;;;;24.70;22.10;;;;;;;8.77;78.48;100676.39;116873;1187;23441;-77
2021/10/02 03:56:04;;;;;;;25.20;21.60;;;;;;;8.78;78.33;100676.51;116980;1189;21968;-77
2021/10/02 03:58:33;;;;;;;25.80;21.90;;;;;;;8.78;78.26;100679.66;116887;1190;22741;-77
2021/10/02 04:01:03;;;;;;;24.30;21.70;;;;;;;8.79;78.30;100676.38;116901;1190;23458;-78
2021/10/02 04:03:33;;;;;;;25.70;22.90;;;;;;;8.79;78.28;100675.66;116952;1189;23436;-78
2021/10/02 04:06:02;;;;;;;23.50;21.20;;;;;;;8.79;78.21;100675.39;116921;1188;21894;-77
2021/10/02 04:08:31;;;;;;;24.60;22.10;;;;;;;8.79;78.25;100678.00;117174;1187;23464;-77
2021/10/02 04:11:03;;;;;;;25.50;22.80;;;;;;;8.80;78.21;100675.44;117205;1187;21993;-77
2021/10/02 04:13:34;;;;;;;25.10;22.50;;;;;;;8.79;78.15;100675.34;117155;1184;21887;-77
2021/10/02 04:16:03;;;;;;;25.10;22.50;;;;;;;8.79;78.18;100673.23;117014;1187;21888;-77
2021/10/02 04:18:33;;;;;;;25.30;22.80;;;;;;;8.80;78.11;100676.66;117098;1187;21883;-77
2021/10/02 04:21:03;;;;;;;25.40;22.80;;;;;;;8.79;78.11;100675.49;117233;1187;21898;-77
2021/10/02 04:23:32;;;;;;;24.40;21.80;;;;;;;8.77;78.12;100676.72;117191;1187;22360;-77
2021/10/02 04:26:01;;;;;;;22.90;19.90;;;;;;;8.73;77.95;100676.13;117188;1187;22262;-78
2021/10/02 04:28:30;;;;;;;24.00;21.50;;;;;;;8.68;78.10;100675.70;117177;1187;22908;-78
2021/10/02 04:31:03;;;;;;;27.10;21.80;;;;;;;8.63;78.09;100671.73;117181;1187;21884;-78
2021/10/02 04:33:32;;;;;;;22.70;20.50;;;;;;;8.57;78.12;100671.43;116974;1189;23036;-78
2021/10/02 04:36:02;;;;;;;23.20;20.50;;;;;;;8.52;78.27;100665.12;117050;1187;21893;-77
2021/10/02 04:38:31;;;;;;;24.90;22.20;;;;;;;8.48;78.38;100665.96;116982;1189;21882;-78
2021/10/02 04:41:00;;;;;;;23.30;20.90;;;;;;;8.46;78.57;100664.26;116964;1189;21893;-78
2021/10/02 04:43:37;;;;;;;25.20;22.40;;;;;;;8.44;78.62;100668.95;116831;1190;21895;-78
2021/10/02 04:46:07;;;;;;;25.30;21.30;;;;;;;8.43;78.72;100665.63;116916;1177;21874;-78
2021/10/02 04:48:38;;;;;;;24.40;21.60;;;;;;;8.41;78.78;100663.18;116947;1190;22285;-78
2021/10/02 04:51:09;;;;;;;22.90;20.20;;;;;;;8.39;78.90;100660.21;117075;1188;22823;-78
2021/10/02 04:53:41;;;;;;;23.90;21.40;;;;;;;8.37;78.94;100657.90;117279;1177;21896;-78
2021/10/02 04:56:14;;;;;;;23.30;20.90;;;;;;;8.37;79.04;100658.08;116981;1190;22308;-77
2021/10/02 04:58:46;;;;;;;24.30;21.80;;;;;;;8.36;79.00;100660.05;116999;1190;21893;-78
2021/10/02 05:01:22;;;;;;;23.90;21.60;;;;;;;8.35;79.06;100664.23;116939;1190;22701;-77
2021/10/02 05:03:55;;;;;;;22.90;20.60;;;;;;;8.33;79.15;100663.92;116879;1190;21871;-77
2021/10/02 05:06:25;;;;;;;23.90;21.30;;;;;;;8.32;79.20;100663.48;116967;1190;21906;-77
2021/10/02 05:08:55;;;;;;;22.80;20.60;;;;;;;8.31;79.25;100666.41;116820;1190;22333;-77
2021/10/02 05:11:41;;;;;;;23.20;20.10;;;;;;;8.28;79.31;100666.27;116841;1190;21891;-77
2021/10/02 05:14:19;;;;;;;25.40;22.90;;;;;;;8.28;79.40;100665.11;117076;1187;23542;-78
2021/10/02 05:16:54;;;;;;;24.40;21.90;;;;;;;8.29;79.51;100661.84;117132;1187;23548;-78
2021/10/02 05:19:23;;;;;;;24.00;21.50;;;;;;;8.30;79.60;100656.98;117164;1188;22382;-77
2021/10/02 05:21:53;;;;;;;23.10;20.70;;;;;;;8.31;79.60;100658.15;116787;1191;23454;-77
2021/10/02 05:24:22;;;;;;;25.30;22.70;;;;;;;8.31;79.61;100657.40;116751;1192;23518;-78
2021/10/02 05:26:51;;;;;;;25.80;21.90;;;;;;;8.30;79.61;100655.27;116595;1192;21898;-78
2021/10/02 05:29:21;;;;;;;24.00;21.60;;;;;;;8.31;79.69;100655.34;116741;1192;23529;-77
2021/10/02 05:31:51;;;;;;;24.20;21.60;;;;;;;8.33;79.81;100657.58;116565;1192;21872;-78
2021/10/02 05:34:20;;;;;;;24.20;21.90;;;;;;;8.35;79.87;100658.57;116766;1192;21894;-78
2021/10/02 05:36:49;;;;;;;25.10;22.10;;;;;;;8.40;79.95;100662.16;116718;1192;21906;-78
2021/10/02 05:39:19;;;;;;;23.30;21.00;;;;;;;8.43;79.99;100660.84;116507;1189;21888;-78
2021/10/02 05:41:48;;;;;;;28.90;21.60;;;;;;;8.46;80.00;100661.73;117061;1187;21891;-78
2021/10/02 05:44:18;;;;;;;23.70;20.70;;;;;;;8.50;80.03;100664.24;117191;1187;23476;-78
2021/10/02 05:46:47;;;;;;;26.20;23.40;;;;;;;8.54;80.08;100663.30;117085;1183;21873;-77
2021/10/02 05:49:16;;;;;;;23.40;21.00;;;;;;;8.60;80.17;100665.61;117080;1187;21881;-76
2021/10/02 05:51:46;;;;;;;23.90;20.30;;;;;;;8.65;80.17;100669.68;117165;1188;22844;-76
2021/10/02 05:54:18;;;;;;;23.80;21.40;;;;;;;8.71;80.25;100671.16;117077;1188;23664;-78
2021/10/02 05:56:48;;;;;;;24.50;21.90;;;;;;;8.78;80.24;100669.07;117215;1177;21875;-76
2021/10/02 05:59:26;;;;;;;26.10;23.00;;;;;;;8.85;80.20;100666.63;117166;1188;21880;-77
2021/10/02 06:02:01;;;;;;;28.00;23.60;;;;;;;8.92;80.23;100663.52;117002;1183;21872;-76
2021/10/02 06:04:33;;;;;;;29.90;26.10;;;;;;;8.98;80.15;100665.39;117164;1179;21878;-78
2021/10/02 06:07:05;;;;;;;31.30;23.50;;;;;;;9.05;80.06;100667.71;117194;1187;22909;-78
2021/10/02 06:09:34;;;;;;;25.80;22.60;;;;;;;9.12;80.15;100668.97;116955;1188;21877;-78
2021/10/02 06:12:03;;;;;;;22.50;20.30;;;;;;;9.20;80.17;100669.57;116903;1187;22876;-78
2021/10/02 06:14:33;;;;;;;24.30;20.60;;;;;;;9.29;80.11;100669.10;116861;1183;21894;-78
2021/10/02 06:17:03;;;;;;;24.30;21.90;;;;;;;9.38;79.99;100676.59;116882;1187;22907;-77
2021/10/02 06:19:33;;;;;;;23.60;19.80;;;;;;;9.46;79.93;100677.88;116870;1190;22289;-78
2021/10/02 06:22:03;;;;;;;21.60;19.10;;;;;;;9.55;80.00;100678.38;116934;1190;23462;-79
2021/10/02 06:24:32;;;;;;;23.50;21.20;;;;;;;9.66;79.84;100677.70;116884;1187;21869;-77
2021/10/02 06:27:04;;;;;;;23.20;20.90;;;;;;;9.76;79.65;100678.36;116902;1190;23595;-77
2021/10/02 06:29:35;;;;;;;27.90;22.20;;;;;;;9.88;79.63;100683.71;116933;1187;21881;-77
2021/10/02 06:32:05;;;;;;;26.20;23.60;;;;;;;10.00;79.61;100686.88;117199;1187;22724;-77
2021/10/02 06:34:34;;;;;;;26.10;23.60;;;;;;;10.14;79.53;100682.69;117190;1187;22257;-77
2021/10/02 06:37:03;;;;;;;26.80;24.10;;;;;;;10.27;79.42;100684.30;117189;1178;22871;-78
2021/10/02 06:39:32;;;;;;;27.60;25.10;;;;;;;10.40;79.15;100684.64;117251;1187;21976;-79
2021/10/02 06:42:05;;;;;;;27.30;24.50;;;;;;;10.54;78.97;100685.65;117214;1187;21876;-78
2021/10/02 06:44:35;;;;;;;33.30;25.00;;;;;;;10.69;78.85;100685.30;117093;1187;21885;-79
2021/10/02 06:47:05;;;;;;;29.70;25.00;;;;;;;10.86;78.53;100682.09;117176;1176;23008;-79
2021/10/02 06:49:34;;;;;;;24.60;22.10;;;;;;;11.05;78.43;100682.69;117232;1187;21918;-79
2021/10/02 06:52:03;;;;;;;30.90;22.70;;;;;;;11.25;78.29;100678.09;117234;1187;21907;-80
2021/10/02 06:54:32;;;;;;;22.00;19.90;;;;;;;11.49;78.10;100671.84;117149;1176;21880;-80
2021/10/02 06:57:02;;;;;;;23.10;20.60;;;;;;;11.82;78.49;100670.70;117173;1187;22262;-79
2021/10/02 06:59:31;;;;;;;20.60;18.40;;;;;;;12.26;78.56;100671.54;117107;1187;22651;-78
2021/10/02 07:02:01;;;;;;;20.50;18.40;;;;;;;12.63;77.03;100672.64;117270;1187;23533;-79
2021/10/02 07:04:31;;;;;;;19.30;17.40;;;;;;;12.99;76.18;100672.96;117201;1187;22521;-79
2021/10/02 07:07:00;;;;;;;19.30;17.40;;;;;;;13.34;75.15;100673.08;117366;1187;21874;-79
2021/10/02 07:09:31;;;;;;;19.00;16.80;;;;;;;13.69;73.99;100671.00;117211;1187;22836;-79
2021/10/02 07:12:03;;;;;;;18.80;16.90;;;;;;;13.98;72.72;100672.08;117228;1187;23521;-78
2021/10/02 07:14:33;;;;;;;19.00;16.70;;;;;;;14.27;71.54;100670.05;117207;1187;21897;-78
2021/10/02 07:17:02;;;;;;;20.00;17.70;;;;;;;14.53;70.42;100667.30;117204;1187;21883;-79
2021/10/02 07:19:32;;;;;;;20.60;16.60;;;;;;;14.77;69.08;100673.08;117110;1187;21956;-79
2021/10/02 07:22:01;;;;;;;17.20;15.50;;;;;;;14.94;67.82;100672.38;117196;1184;23532;-80
2021/10/02 07:24:32;;;;;;;17.30;15.70;;;;;;;15.13;67.10;100667.07;116829;1191;21879;-79
2021/10/02 07:27:02;;;;;;;17.90;15.80;;;;;;;15.37;66.77;100666.61;116802;1191;21899;-79
2021/10/02 07:29:31;;;;;;;18.10;16.30;;;;;;;15.50;65.50;100668.60;116802;1191;23571;-79
2021/10/02 07:32:01;;;;;;;19.20;17.10;;;;;;;15.67;65.23;100666.71;116765;1191;21893;-79
2021/10/02 07:34:30;;;;;;;19.50;17.70;;;;;;;15.84;64.58;100664.95;116827;1191;21869;-80
2021/10/02 07:37:00;;;;;;;18.90;17.10;;;;;;;16.04;64.13;100656.77;116787;1191;23552;-78
2021/10/02 07:39:29;;;;;;;18.60;16.60;;;;;;;16.17;63.64;100661.76;116779;1191;22893;-77
2021/10/02 07:41:59;;;;;;;19.90;17.50;;;;;;;16.32;63.26;100662.66;116809;1187;21919;-77
2021/10/02 07:44:30;;;;;;;20.10;16.60;;;;;;;16.49;63.04;100662.98;117112;1188;21903;-78
2021/10/02 07:47:02;;;;;;;17.80;16.00;;;;;;;16.71;62.69;100662.70;117138;1188;21887;-78
2021/10/02 07:49:34;;;;;;;21.10;18.90;;;;;;;16.94;62.14;100663.20;116791;1191;22134;-78
2021/10/02 07:52:06;;;;;;;18.20;16.40;;;;;;;17.09;61.09;100663.06;116797;1191;21885;-78
2021/10/02 07:54:41;;;;;;;21.60;17.90;;;;;;;17.19;60.51;100665.37;116716;1192;21943;-77
2021/10/02 07:57:12;;;;;;;19.50;17.60;;;;;;;17.38;60.34;100663.66;116747;1192;21895;-78
2021/10/02 07:59:41;;;;;;;20.40;17.10;;;;;;;17.53;59.41;100665.20;116761;1192;21880;-78
2021/10/02 08:02:16;;;;;;;17.70;16.00;;;;;;;17.56;58.70;100661.66;116716;1192;23682;-77
2021/10/02 08:04:46;;;;;;;17.70;16.00;;;;;;;17.65;58.53;100656.63;116565;1182;21991;-79
2021/10/02 08:07:16;;;;;;;19.60;17.70;;;;;;;17.80;58.52;100655.83;116793;1191;23483;-78
2021/10/02 08:09:45;;;;;;;17.90;16.10;;;;;;;17.98;58.53;100655.18;116498;1190;22643;-78
2021/10/02 08:12:15;;;;;;;17.10;15.30;;;;;;;18.22;58.32;100657.34;116606;1191;21882;-78
2021/10/02 08:14:44;;;;;;;18.90;17.20;;;;;;;18.37;56.97;100652.64;116778;1191;21913;-78
2021/10/02 08:17:15;;;;;;;18.70;16.60;;;;;;;18.45;56.55;100651.21;116754;1191;23439;-78
2021/10/02 08:19:45;;;;;;;17.20;15.70;;;;;;;18.60;56.50;100650.30;116772;1191;21900;-79
2021/10/02 08:22:16;;;;;;;20.10;16.20;;;;;;;18.66;55.72;100643.55;116744;1191;22979;-78
2021/10/02 08:24:46;;;;;;;18.20;15.30;;;;;;;18.74;55.42;100643.48;116724;1191;21921;-77
2021/10/02 08:27:15;;;;;;;17.60;15.80;;;;;;;18.80;54.81;100647.57;116816;1187;22418;-78
2021/10/02 08:29:45;;;;;;;16.00;14.60;;;;;;;18.89;54.74;100645.66;117149;1188;21904;-79
2021/10/02 08:32:16;;;;;;;18.80;16.90;;;;;;;19.00;54.53;100644.48;117103;1188;21889;-78
2021/10/02 08:34:45;;;;;;;30.60;27.40;;;;;;;19.03;54.01;100643.76;117069;1188;21895;-78
2021/10/02 08:37:15;;;;;;;18.30;16.60;;;;;;;19.10;53.91;100644.24;117142;1188;23436;-78
2021/10/02 08:39:45;;;;;;;17.70;16.10;;;;;;;19.20;53.98;100642.70;116754;1191;21890;-78
2021/10/02 08:42:15;;;;;;;17.50;15.90;;;;;;;19.35;54.11;100642.27;116751;1191;21874;-77
2021/10/02 08:44:51;;;;;;;16.90;15.50;;;;;;;19.44;53.33;100637.57;116800;1191;21974;-77
2021/10/02 08:47:23;;;;;;;18.40;16.60;;;;;;;19.50;53.12;100639.24;116779;1191;22076;-79
2021/10/02 08:49:54;;;;;;;19.50;16.40;;;;;;;19.51;53.03;100636.80;116797;1177;22909;-78
2021/10/02 08:52:24;;;;;;;20.60;18.70;;;;;;;19.54;52.93;100632.13;116770;1191;21904;-78
2021/10/02 08:54:55;;;;;;;17.70;16.00;;;;;;;19.68;53.28;100624.59;116772;1187;23752;-77
2021/10/02 08:57:29;;;;;;;17.90;16.30;;;;;;;19.86;52.82;100628.41;116789;1188;22889;-79
2021/10/02 09:00:01;;;;;;;17.30;15.70;;;;;;;19.91;51.95;100628.41;117202;1187;22894;-78
2021/10/02 09:02:30;;;;;;;17.80;16.20;;;;;;;19.82;51.11;100620.96;117130;1185;22909;-79
2021/10/02 09:05:00;;;;;;;16.60;15.20;;;;;;;19.73;51.70;100616.81;117152;1187;21906;-78
2021/10/02 09:07:30;;;;;;;20.60;18.70;;;;;;;19.81;52.23;100616.69;117148;1187;23693;-78
2021/10/02 09:10:02;;;;;;;20.40;17.50;;;;;;;19.90;52.10;100621.45;117175;1187;21873;-78
2021/10/02 09:12:32;;;;;;;18.80;17.10;;;;;;;19.93;51.62;100622.41;117201;1187;21876;-77
2021/10/02 09:15:03;;;;;;;18.90;17.00;;;;;;;19.99;51.88;100620.69;117190;1187;21898;-78
2021/10/02 09:17:33;;;;;;;19.50;17.70;;;;;;;20.16;52.10;100621.08;117108;1187;22973;-78
2021/10/02 09:20:07;;;;;;;17.60;16.00;;;;;;;20.32;51.48;100623.54;117109;1184;21891;-78
2021/10/02 09:22:39;;;;;;;19.10;17.00;;;;;;;20.37;50.90;100620.66;117187;1184;23009;-78
2021/10/02 09:25:10;;;;;;;19.10;17.30;;;;;;;20.34;50.05;100619.25;117229;1187;24209;-78
2021/10/02 09:27:39;;;;;;;17.50;15.90;;;;;;;20.23;50.15;100618.40;117180;1187;23458;-78
2021/10/02 09:30:13;;;;;;;17.50;15.80;;;;;;;20.19;50.33;100618.79;117210;1187;21887;-79
2021/10/02 09:32:46;;;;;;;18.90;17.10;;;;;;;20.29;51.04;100616.42;117162;1184;21911;-79
2021/10/02 09:35:21;;;;;;;17.00;15.20;;;;;;;20.55;51.31;100614.92;117066;1187;22887;-78
2021/10/02 09:37:55;;;;;;;16.90;15.10;;;;;;;20.78;50.19;100613.92;117153;1188;23624;-79
2021/10/02 09:40:25;;;;;;;17.30;15.70;;;;;;;20.97;50.04;100615.80;117213;1187;21866;-78
2021/10/02 09:42:58;;;;;;;16.10;14.70;;;;;;;21.18;49.24;100622.17;117208;1187;21901;-79
2021/10/02 09:45:36;;;;;;;16.70;14.30;;;;;;;21.38;48.91;100622.64;117114;1187;21887;-79
2021/10/02 09:48:09;;;;;;;13.20;12.10;;;;;;;21.59;48.44;100619.41;117158;1187;22350;-79
2021/10/02 09:50:47;;;;;;;14.20;12.80;;;;;;;21.68;47.22;100619.52;117174;1188;21889;-78
2021/10/02 09:53:19;;;;;;;13.40;12.20;;;;;;;21.75;46.80;100613.32;117111;1188;23537;-78
2021/10/02 09:55:52;;;;;;;13.10;11.90;;;;;;;21.93;47.08;100608.45;117149;1188;21946;-79
2021/10/02 09:58:35;;;;;;;13.30;12.20;;;;;;;22.16;46.83;100605.70;117107;1188;23534;-79
2021/10/02 10:01:08;;;;;;;14.30;12.80;;;;;;;22.47;46.36;100605.31;117115;1187;22042;-78
2021/10/02 10:03:47;;;;;;;12.80;11.00;;;;;;;22.66;45.70;100598.89;117122;1185;21964;-78
2021/10/02 10:06:26;;;;;;;14.30;12.80;;;;;;;22.97;45.54;100596.31;117077;1187;24697;-78
2021/10/02 10:09:10;;;;;;;11.30;10.10;;;;;;;23.18;43.62;100592.73;117199;1187;21875;-78
2021/10/02 10:11:55;;;;;;;12.20;11.00;;;;;;;22.94;41.98;100587.52;117155;1187;21898;-79
2021/10/02 10:14:28;;;;;;;11.40;10.20;;;;;;;22.83;42.71;100585.33;117174;1187;21878;-78
2021/10/02 10:17:00;;;;;;;11.20;10.20;;;;;;;22.87;42.98;100584.77;117183;1187;21957;-80
2021/10/02 10:19:31;;;;;;;14.30;10.60;;;;;;;23.07;43.17;100584.03;117074;1187;23670;-79
2021/10/02 10:22:10;;;;;;;11.10;10.10;;;;;;;23.25;42.38;100586.31;117244;1187;21919;-79
2021/10/02 10:24:52;;;;;;;13.90;10.70;;;;;;;23.48;42.40;100590.05;117282;1187;23080;-80
2021/10/02 10:27:48;;;;;;;10.50;9.50;;;;;;;23.70;42.15;100590.66;117222;1187;21888;-79
2021/10/02 10:30:22;;;;;;;11.90;10.60;;;;;;;23.88;41.59;100589.25;117099;1188;21937;-79
2021/10/02 10:32:59;;;;;;;12.00;10.90;;;;;;;23.99;40.69;100589.58;117060;1188;21909;-79
2021/10/02 10:35:48;;;;;;;16.30;14.50;;;;;;;23.95;39.95;100589.59;116995;1187;21889;-80
2021/10/02 10:38:24;;;;;;;13.00;11.70;;;;;;;23.92;40.58;100586.91;117051;1189;22624;-79
2021/10/02 10:40:54;;;;;;;11.20;10.20;;;;;;;23.99;40.40;100586.04;116986;1186;23531;-79
2021/10/02 10:43:23;;;;;;;11.20;9.90;;;;;;;24.11;40.23;100586.98;116984;1189;23551;-80
2021/10/02 10:45:56;;;;;;;10.20;9.10;;;;;;;24.20;39.92;100582.55;116990;1189;23485;-79
2021/10/02 10:48:26;;;;;;;11.70;10.50;;;;;;;24.14;38.93;100582.88;117011;1179;22048;-79
2021/10/02 10:51:14;;;;;;;11.80;9.60;;;;;;;23.95;38.95;100579.35;116989;1190;23461;-78
2021/10/02 10:53:48;;;;;;;12.90;11.60;;;;;;;23.68;39.40;100578.97;117055;1187;22773;-78
2021/10/02 10:56:37;;;;;;;13.30;12.00;;;;;;;23.52;40.04;100568.05;117216;1187;21886;-79
2021/10/02 10:59:06;;;;;;;13.40;11.90;;;;;;;23.43;40.17;100564.96;117178;1187;21911;-78
2021/10/02 11:01:40;;;;;;;12.70;11.50;;;;;;;23.13;39.48;100564.94;117237;1187;23530;-80
2021/10/02 11:04:46;;;;;;;12.80;11.10;;;;;;;22.58;39.66;100560.76;117195;1187;21874;-78
2021/10/02 11:07:16;;;;;;;12.20;10.70;;;;;;;21.96;40.98;100556.17;116804;1177;21948;-79
2021/10/02 11:09:45;;;;;;;11.70;10.70;;;;;;;21.52;41.76;100558.50;116821;1191;21891;-80
2021/10/02 11:12:17;;;;;;;12.10;10.90;;;;;;;21.11;42.43;100558.23;116833;1191;24227;-78
2021/10/02 11:14:59;;;;;;;11.20;10.20;;;;;;;20.76;43.49;100558.23;116837;1191;22285;-79
2021/10/02 11:17:44;;;;;;;11.70;10.60;;;;;;;20.52;44.38;100551.17;116803;1191;21898;-78
2021/10/02 11:20:17;;;;;;;11.60;10.60;;;;;;;20.41;45.08;100545.27;116783;1191;22996;-76
2021/10/02 11:23:39;;;;;;;12.10;11.00;;;;;;;20.35;45.35;100543.23;116818;1191;23440;-80
2021/10/02 11:26:19;;;;;;;11.50;10.40;;;;;;;20.29;45.67;100536.40;116805;1191;21878;-79
2021/10/02 11:28:57;;;;;;;11.70;10.60;;;;;;;20.23;45.85;100533.79;116809;1191;21909;-79
2021/10/02 11:31:40;;;;;;;14.40;13.00;;;;;;;20.17;45.88;100533.36;116862;1191;21885;-79
2021/10/02 11:34:23;;;;;;;12.20;11.10;;;;;;;20.13;46.15;100534.00;116913;1191;24160;-79
2021/10/02 11:36:57;;;;;;;12.60;11.30;;;;;;;20.10;46.20;100532.52;116465;1194;22093;-79
2021/10/02 11:39:26;;;;;;;13.50;11.40;;;;;;;20.08;46.35;100529.95;116319;1194;21940;-79
2021/10/02 11:42:11;;;;;;;12.90;11.70;;;;;;;20.05;46.43;100529.33;116417;1193;21888;-80
2021/10/02 11:44:50;;;;;;;12.30;11.10;;;;;;;20.02;46.46;100524.64;116511;1192;21896;-80
2021/10/02 11:47:38;;;;;;;13.10;12.10;;;;;;;19.92;46.37;100518.03;116508;1192;23637;-78
2021/10/02 11:50:07;;;;;;;12.70;11.50;;;;;;;19.83;46.59;100517.14;116489;1194;21905;-80
2021/10/02 11:52:43;;;;;;;12.50;11.40;;;;;;;19.77;46.75;100520.39;116479;1190;21898;-80
2021/10/02 11:55:40;;;;;;;11.30;10.20;;;;;;;19.68;46.95;100522.55;116549;1192;21885;-80
2021/10/02 11:58:09;;;;;;;11.70;10.70;;;;;;;19.59;46.96;100527.33;116724;1192;21939;-78
2021/10/02 12:00:50;;;;;;;13.10;11.90;;;;;;;19.54;47.32;100527.29;116952;1189;21900;-80
2021/10/02 12:03:31;;;;;;;14.50;12.80;;;;;;;19.53;47.51;100530.59;116970;1190;21973;-78
2021/10/02 12:06:04;;;;;;;13.20;12.00;;;;;;;19.53;47.57;100522.19;116871;1189;21883;-79
2021/10/02 12:08:34;;;;;;;12.80;11.50;;;;;;;19.53;47.82;100524.70;116916;1190;23574;-79
2021/10/02 12:11:08;;;;;;;12.90;11.30;;;;;;;19.59;48.12;100523.20;116769;1191;21885;-79
2021/10/02 12:13:43;;;;;;;13.40;12.10;;;;;;;19.67;48.20;100524.55;116801;1191;23557;-78
2021/10/02 12:16:22;;;;;;;14.30;12.80;;;;;;;19.75;48.25;100525.11;116948;1191;22657;-80
2021/10/02 12:19:13;;;;;;;14.20;12.60;;;;;;;19.83;48.22;100523.98;116944;1191;21903;-80
2021/10/02 12:21:57;;;;;;;14.80;13.30;;;;;;;19.85;47.98;100520.17;116799;1191;21943;-80
2021/10/02 12:24:39;;;;;;;14.90;13.50;;;;;;;19.89;47.89;100522.27;116855;1191;22078;-79
2021/10/02 12:27:16;;;;;;;13.40;12.00;;;;;;;19.90;47.61;100520.77;117058;1188;23459;-81
2021/10/02 12:29:52;;;;;;;16.00;12.60;;;;;;;19.87;47.51;100523.31;117164;1188;21889;-79
2021/10/02 12:32:24;;;;;;;19.20;17.40;;;;;;;19.83;47.60;100523.41;117158;1188;21888;-79